Time;durP1;ratioP1;P1;durP2;ratioP2;P2;SDS_P1;SDS_P2;PMS_P1;PMS_P2;Temp;Humidity;BMP_temperature;BMP_pressure;BME280_temperature;BME280_humidity;BME280_pressure;Samples;Min_cycle;Max_cycle;Signal;HPM_P1;HPM_P2
2022/10/04 00:00:35;;;;;;;11.85;5.18;;;16.40;94.40;;;;;;5014022;28;20084;-74
2022/10/04 00:03:25;;;;;;;10.98;4.90;;;16.40;94.40;;;;;;5013899;28;20022;-73
2022/10/04 00:05:54;;;;;;;10.00;4.85;;;16.40;94.40;;;;;;5013818;28;20044;-73
2022/10/04 00:08:41;;;;;;;9.63;4.18;;;16.40;94.40;;;;;;5013709;28;20026;-74
2022/10/04 00:11:32;;;;;;;12.85;4.88;;;16.40;94.40;;;;;;5013554;28;20041;-75
2022/10/04 00:14:00;;;;;;;13.68;5.22;;;16.50;94.30;;;;;;5013663;28;20385;-74
2022/10/04 00:16:30;;;;;;;10.85;5.03;;;16.50;94.30;;;;;;5013871;28;20057;-74
2022/10/04 00:19:20;;;;;;;9.98;4.55;;;16.50;94.30;;;;;;5013187;28;20030;-74
2022/10/04 00:21:55;;;;;;;13.15;5.40;;;16.50;94.30;;;;;;5013896;28;20022;-74
2022/10/04 00:24:29;;;;;;;15.65;4.93;;;16.40;94.20;;;;;;5013823;28;20110;-74
2022/10/04 00:27:26;;;;;;;12.20;4.72;;;16.50;94.30;;;;;;5013260;28;20042;-74
2022/10/04 00:30:00;;;;;;;13.90;4.32;;;16.50;94.30;;;;;;5013509;28;20362;-74
2022/10/04 00:32:30;;;;;;;12.77;4.30;;;16.50;94.30;;;;;;5013318;28;20056;-73
2022/10/04 00:34:58;;;;;;;13.55;4.38;;;16.50;94.30;;;;;;5013754;28;20049;-74
2022/10/04 00:37:25;;;;;;;11.45;4.05;;;16.40;94.50;;;;;;5013492;28;20128;-74
2022/10/04 00:40:01;;;;;;;12.02;3.78;;;16.50;94.30;;;;;;5013367;28;20051;-74
2022/10/04 00:42:45;;;;;;;10.70;4.03;;;16.50;94.40;;;;;;5013580;28;20069;-74
2022/10/04 00:45:29;;;;;;;10.90;3.63;;;16.40;94.50;;;;;;5015804;28;20030;-73
2022/10/04 00:48:03;;;;;;;9.95;3.80;;;16.40;94.70;;;;;;5034048;28;20073;-74
2022/10/04 00:50:32;;;;;;;8.65;3.45;;;16.40;94.70;;;;;;5021136;28;20537;-74
2022/10/04 00:53:01;;;;;;;9.07;3.53;;;16.40;94.50;;;;;;5013292;28;20038;-74
2022/10/04 00:55:38;;;;;;;8.63;4.07;;;16.40;94.60;;;;;;5013381;28;20434;-74
2022/10/04 00:58:14;;;;;;;8.65;4.07;;;16.40;94.60;;;;;;5045107;28;20026;-74
2022/10/04 01:00:42;;;;;;;13.00;4.53;;;16.40;94.60;;;;;;5013177;28;20473;-74
2022/10/04 01:03:17;;;;;;;11.70;4.38;;;16.40;94.70;;;;;;5013352;28;20030;-74
2022/10/04 01:05:52;;;;;;;10.27;4.65;;;16.40;94.70;;;;;;5017233;28;20378;-74
2022/10/04 01:08:23;;;;;;;10.60;4.40;;;16.40;94.70;;;;;;5016867;28;20029;-74
2022/10/04 01:10:58;;;;;;;12.10;4.85;;;16.40;94.80;;;;;;5017007;28;20492;-74
2022/10/04 01:13:29;;;;;;;10.63;4.38;;;16.40;94.80;;;;;;5016810;28;20033;-74
2022/10/04 01:16:06;;;;;;;10.70;4.53;;;16.40;94.80;;;;;;5016764;28;20050;-74
2022/10/04 01:18:34;;;;;;;11.18;4.47;;;16.40;94.70;;;;;;5016645;28;20539;-74
2022/10/04 01:21:18;;;;;;;9.07;4.05;;;16.40;94.80;;;;;;5016620;28;20037;-74
2022/10/04 01:23:50;;;;;;;11.65;4.55;;;16.40;94.80;;;;;;5016601;28;20537;-74
2022/10/04 01:26:31;;;;;;;9.60;4.00;;;16.40;94.70;;;;;;5016575;28;20083;-75
2022/10/04 01:29:13;;;;;;;11.90;4.30;;;16.40;94.70;;;;;;5016663;28;20080;-74
2022/10/04 01:31:50;;;;;;;10.45;4.20;;;16.40;94.70;;;;;;5016837;28;20385;-74
2022/10/04 01:34:19;;;;;;;10.00;3.55;;;16.40;94.70;;;;;;5016851;28;20038;-74
2022/10/04 01:36:47;;;;;;;9.10;3.42;;;16.40;94.70;;;;;;5016512;28;20030;-74
2022/10/04 01:39:18;;;;;;;10.00;3.10;;;16.40;94.70;;;;;;5016938;28;20018;-74
2022/10/04 01:41:46;;;;;;;9.60;3.33;;;16.30;94.70;;;;;;5038114;28;20021;-74
2022/10/04 01:44:24;;;;;;;11.57;3.47;;;16.30;94.70;;;;;;5027394;28;20033;-74
2022/10/04 01:46:52;;;;;;;8.57;3.78;;;16.30;94.70;;;;;;5017912;28;20022;-74
2022/10/04 01:49:25;;;;;;;8.32;3.42;;;16.30;94.80;;;;;;5016074;28;20481;-75
2022/10/04 01:52:06;;;;;;;8.35;3.20;;;16.30;94.80;;;;;;5016344;28;20084;-74
2022/10/04 01:54:42;;;;;;;7.30;3.40;;;16.30;94.70;;;;;;5015937;28;20030;-74
2022/10/04 01:57:29;;;;;;;8.43;3.20;;;16.20;94.70;;;;;;5016297;28;20036;-75
2022/10/04 02:00:03;;;;;;;10.93;4.35;;;16.30;94.80;;;;;;5016126;28;20032;-75
2022/10/04 02:02:38;;;;;;;10.80;4.00;;;16.20;94.70;;;;;;5015971;28;20022;-74
2022/10/04 02:05:09;;;;;;;10.55;3.83;;;16.20;94.70;;;;;;5015797;28;20037;-75
2022/10/04 02:07:37;;;;;;;8.23;2.83;;;16.20;94.80;;;;;;5016027;28;20030;-75
2022/10/04 02:10:09;;;;;;;8.73;3.25;;;16.20;94.80;;;;;;5015783;28;20037;-74
2022/10/04 02:12:37;;;;;;;10.47;3.67;;;16.20;94.80;;;;;;5015932;28;20034;-73
2022/10/04 02:15:07;;;;;;;13.77;4.18;;;16.20;94.90;;;;;;5015694;28;20340;-74
2022/10/04 02:17:39;;;;;;;8.75;3.45;;;16.10;94.90;;;;;;5015326;28;20437;-73
2022/10/04 02:20:20;;;;;;;8.77;3.75;;;16.20;94.90;;;;;;5015794;28;20022;-74
2022/10/04 02:22:50;;;;;;;10.18;3.95;;;16.20;94.90;;;;;;5015486;28;20026;-74
2022/10/04 02:25:18;;;;;;;6.47;3.33;;;16.10;95.20;;;;;;5015463;28;20466;-74
2022/10/04 02:27:44;;;;;;;7.70;3.33;;;16.20;95.00;;;;;;5015040;28;20038;-74
2022/10/04 02:30:12;;;;;;;9.05;4.00;;;16.20;95.00;;;;;;5015603;28;20079;-74
2022/10/04 02:32:58;;;;;;;9.80;4.18;;;16.10;94.90;;;;;;5015180;28;20112;-74
2022/10/04 02:35:28;;;;;;;6.72;3.72;;;16.10;94.90;;;;;;5015441;28;20030;-74
2022/10/04 02:38:08;;;;;;;11.50;4.18;;;16.10;94.90;;;;;;5015489;28;20112;-74
2022/10/04 02:41:11;;;;;;;9.18;3.70;;;16.10;94.90;;;;;;5023275;28;20021;-74
2022/10/04 02:43:50;;;;;;;9.70;3.33;;;16.00;94.90;;;;;;5020401;28;20036;-74
2022/10/04 02:46:23;;;;;;;11.45;3.92;;;16.00;94.90;;;;;;5015324;28;20097;-74
2022/10/04 02:48:52;;;;;;;;;;;16.00;94.90;;;;;;5015189;28;20030;-74
2022/10/04 02:51:27;;;;;;;9.38;3.88;;;16.00;94.80;;;;;;5014959;28;20392;-74
2022/10/04 02:54:26;;;;;;;8.38;3.80;;;16.10;94.80;;;;;;5015070;28;20048;-74
2022/10/04 02:56:53;;;;;;;7.80;3.55;;;16.00;94.80;;;;;;5015042;28;20415;-74
2022/10/04 02:59:21;;;;;;;9.07;4.28;;;16.00;94.80;;;;;;5014831;28;20102;-74
2022/10/04 03:01:56;;;;;;;9.73;3.95;;;16.00;94.80;;;;;;5014818;28;20030;-74
2022/10/04 03:04:24;;;;;;;10.13;4.78;;;16.00;94.80;;;;;;5014762;28;20050;-74
2022/10/04 03:06:52;;;;;;;12.68;4.30;;;15.90;94.80;;;;;;5014688;28;20113;-74
2022/10/04 03:09:21;;;;;;;10.90;4.80;;;15.90;94.80;;;;;;5015010;28;20125;-74
2022/10/04 03:11:49;;;;;;;8.52;3.90;;;15.90;94.80;;;;;;5014242;28;20041;-74
2022/10/04 03:14:21;;;;;;;8.65;4.13;;;15.90;94.70;;;;;;5014823;28;20117;-74
2022/10/04 03:16:52;;;;;;;10.17;4.23;;;15.90;94.70;;;;;;5014894;28;20030;-74
2022/10/04 03:19:20;;;;;;;7.93;4.43;;;15.90;94.80;;;;;;5014887;28;20217;-73
2022/10/04 03:21:49;;;;;;;11.30;5.55;;;15.90;94.70;;;;;;5014649;28;20111;-74
2022/10/04 03:24:37;;;;;;;12.38;6.40;;;15.80;94.60;;;;;;5014693;28;20028;-74
2022/10/04 03:27:07;;;;;;;11.80;5.65;;;15.70;94.70;;;;;;5013571;28;20171;-74
2022/10/04 03:29:33;;;;;;;10.45;5.22;;;15.70;94.90;;;;;;5014912;28;20141;-73
2022/10/04 03:32:02;;;;;;;14.05;5.53;;;15.60;94.90;;;;;;5014615;28;20046;-74
2022/10/04 03:34:37;;;;;;;12.23;5.13;;;15.70;94.90;;;;;;5016186;28;20029;-73
2022/10/04 03:37:07;;;;;;;9.63;5.07;;;15.60;94.80;;;;;;5028283;28;20524;-74
2022/10/04 03:39:40;;;;;;;11.95;5.30;;;15.70;94.80;;;;;;5019796;28;20046;-74
2022/10/04 03:42:31;;;;;;;7.57;4.13;;;15.60;94.70;;;;;;5014369;28;20030;-73
2022/10/04 03:45:14;;;;;;;11.73;5.43;;;15.60;94.70;;;;;;5014147;28;20042;-74
2022/10/04 03:47:44;;;;;;;11.25;5.53;;;15.70;94.70;;;;;;5014161;28;20022;-74
2022/10/04 03:50:15;;;;;;;12.05;4.95;;;15.70;94.70;;;;;;5014201;28;20092;-74
2022/10/04 03:52:55;;;;;;;8.45;4.28;;;15.70;94.60;;;;;;5014061;28;20121;-74
2022/10/04 03:55:29;;;;;;;9.63;5.03;;;15.70;94.60;;;;;;5013875;28;20025;-74
2022/10/04 03:57:55;;;;;;;6.68;4.93;;;15.70;94.60;;;;;;5014146;28;20037;-75
2022/10/04 04:00:27;;;;;;;9.23;4.13;;;15.70;94.90;;;;;;5014666;28;20036;-74
2022/10/04 04:03:06;;;;;;;10.82;5.53;;;15.70;94.60;;;;;;5013927;28;20022;-74
2022/10/04 04:05:43;;;;;;;9.90;5.53;;;15.70;94.50;;;;;;5014146;28;20394;-74
2022/10/04 04:08:19;;;;;;;12.60;5.82;;;15.70;94.50;;;;;;5013865;28;20030;-75
2022/10/04 04:10:54;;;;;;;11.75;6.03;;;15.60;94.50;;;;;;5013576;28;20030;-73
2022/10/04 04:13:51;;;;;;;14.38;5.43;;;15.60;94.50;;;;;;5013651;28;20034;-74
2022/10/04 04:16:19;;;;;;;9.52;5.07;;;15.50;94.60;;;;;;5013493;28;20407;-74
2022/10/04 04:18:47;;;;;;;10.38;5.18;;;15.60;94.60;;;;;;5013776;28;20030;-74
2022/10/04 04:21:18;;;;;;;13.63;5.78;;;15.60;94.50;;;;;;5013937;28;20022;-74
2022/10/04 04:23:49;;;;;;;13.48;5.78;;;15.60;94.50;;;;;;5013603;28;20021;-74
2022/10/04 04:26:35;;;;;;;11.75;5.35;;;15.50;94.60;;;;;;5013552;28;20046;-74
2022/10/04 04:29:07;;;;;;;13.20;5.25;;;15.50;94.50;;;;;;5013687;28;20029;-74
2022/10/04 04:31:42;;;;;;;10.63;4.43;;;15.40;94.50;;;;;;5023244;28;20090;-73
2022/10/04 04:34:29;;;;;;;9.68;5.18;;;15.40;94.50;;;;;;5020645;28;20100;-74
2022/10/04 04:37:03;;;;;;;12.05;5.68;;;15.40;94.50;;;;;;5013217;28;20104;-73
2022/10/04 04:42:09;;;;;;;10.63;5.00;;;15.40;94.50;;;;;;5017639;28;20525;-74
2022/10/04 04:44:37;;;;;;;9.15;5.43;;;15.30;94.50;;;;;;5017454;28;20034;-74
2022/10/04 04:47:09;;;;;;;13.50;6.20;;;15.30;94.50;;;;;;5017617;28;20032;-74
2022/10/04 04:49:39;;;;;;;8.85;5.00;;;15.30;94.50;;;;;;5017227;28;20044;-74
2022/10/04 04:52:05;;;;;;;11.63;6.45;;;15.20;94.50;;;;;;5017104;28;20160;-73
2022/10/04 04:54:31;;;;;;;11.02;5.53;;;15.20;94.60;;;;;;5017422;28;20030;-74
2022/10/04 04:56:59;;;;;;;11.75;6.05;;;15.20;94.60;;;;;;5017372;28;20033;-74
2022/10/04 04:59:26;;;;;;;11.95;5.65;;;15.10;94.60;;;;;;5016873;28;20424;-74
2022/10/04 05:01:52;;;;;;;7.90;4.78;;;15.20;94.60;;;;;;5016969;28;20030;-74
2022/10/04 05:04:21;;;;;;;8.98;5.60;;;15.20;94.70;;;;;;5016839;28;20080;-75
2022/10/04 05:06:48;;;;;;;8.48;5.50;;;15.20;94.60;;;;;;5016932;28;20028;-74
2022/10/04 05:09:40;;;;;;;7.63;4.82;;;15.10;94.50;;;;;;5016996;28;20033;-74
2022/10/04 05:12:13;;;;;;;12.05;6.18;;;15.20;94.60;;;;;;5017277;28;20042;-74
2022/10/04 05:14:47;;;;;;;8.77;5.60;;;15.10;94.50;;;;;;5016736;28;20076;-74
2022/10/04 05:17:19;;;;;;;15.70;7.97;;;15.10;94.50;;;;;;5016524;28;20040;-74
2022/10/04 05:19:45;;;;;;;12.18;6.45;;;15.10;94.50;;;;;;5016569;28;20022;-74
2022/10/04 05:22:13;;;;;;;11.65;6.60;;;15.00;94.60;;;;;;5016695;28;20034;-74
2022/10/04 05:24:43;;;;;;;9.50;5.78;;;15.00;94.60;;;;;;5016560;28;20030;-74
2022/10/04 05:27:22;;;;;;;9.07;6.25;;;15.00;94.60;;;;;;5022928;28;20054;-73
2022/10/04 05:30:13;;;;;;;12.52;6.05;;;15.00;94.60;;;;;;5021640;28;20025;-74
2022/10/04 05:33:06;;;;;;;11.10;5.97;;;15.00;94.50;;;;;;5018394;28;20382;-74
2022/10/04 05:36:02;;;;;;;10.80;5.95;;;15.00;94.50;;;;;;5016400;28;20072;-74
2022/10/04 05:38:58;;;;;;;10.93;6.18;;;15.00;94.50;;;;;;5016327;28;20038;-74
2022/10/04 05:41:51;;;;;;;12.13;5.40;;;15.00;94.40;;;;;;5016211;28;20056;-73
2022/10/04 05:44:25;;;;;;;16.30;5.60;;;15.00;94.40;;;;;;5016119;28;20030;-72
2022/10/04 05:46:53;;;;;;;11.57;6.00;;;15.10;94.40;;;;;;5016376;28;20382;-73
2022/10/04 05:49:21;;;;;;;13.68;6.30;;;15.10;94.30;;;;;;5015881;28;20108;-73
2022/10/04 05:52:01;;;;;;;11.93;6.03;;;15.00;94.30;;;;;;5015984;28;20041;-74
2022/10/04 05:54:30;;;;;;;10.95;5.78;;;15.00;94.30;;;;;;5015587;28;20034;-74
2022/10/04 05:57:28;;;;;;;8.05;5.30;;;15.00;94.30;;;;;;5015724;28;20026;-74
2022/10/04 06:00:16;;;;;;;11.13;5.82;;;15.00;94.30;;;;;;5016046;28;20033;-74
2022/10/04 06:03:03;;;;;;;10.88;6.28;;;15.00;94.30;;;;;;5015726;28;20022;-74
2022/10/04 06:05:50;;;;;;;11.77;5.82;;;14.90;94.20;;;;;;5015581;28;20172;-73
2022/10/04 06:08:46;;;;;;;10.68;5.82;;;15.00;94.30;;;;;;5016076;28;20026;-73
2022/10/04 06:11:21;;;;;;;12.65;6.20;;;15.00;94.20;;;;;;5015515;28;20042;-74
2022/10/04 06:13:59;;;;;;;11.60;6.20;;;15.00;94.20;;;;;;5015864;28;20069;-74
2022/10/04 06:16:36;;;;;;;10.23;5.97;;;15.10;94.20;;;;;;5015578;28;20122;-75
2022/10/04 06:19:10;;;;;;;12.65;7.90;;;15.10;94.20;;;;;;5016579;28;20030;-72
2022/10/04 06:22:13;;;;;;;14.52;6.88;;;14.90;94.10;;;;;;5016441;28;20113;-74
2022/10/04 06:24:43;;;;;;;11.60;7.18;;;14.80;94.40;;;;;;5030491;28;20067;-71
2022/10/04 06:27:12;;;;;;;14.30;7.03;;;14.80;94.40;;;;;;5018273;28;20456;-74
2022/10/04 06:29:46;;;;;;;14.85;8.18;;;14.70;94.50;;;;;;5015380;28;20192;-74
2022/10/04 06:32:31;;;;;;;12.57;7.75;;;14.70;94.60;;;;;;5015419;28;20056;-74
2022/10/04 06:35:00;;;;;;;14.05;7.25;;;14.60;94.70;;;;;;5015246;28;20109;-74
2022/10/04 06:37:47;;;;;;;13.68;6.88;;;14.60;94.70;;;;;;5015174;28;20036;-74
2022/10/04 06:40:37;;;;;;;11.52;6.35;;;14.60;94.80;;;;;;5015045;28;20113;-74
2022/10/04 06:43:17;;;;;;;12.45;6.85;;;14.60;94.80;;;;;;5015076;28;20030;-74
2022/10/04 06:46:00;;;;;;;10.82;6.10;;;14.70;94.70;;;;;;5014947;28;20029;-73
2022/10/04 06:48:42;;;;;;;12.55;7.18;;;14.70;94.60;;;;;;5015215;28;20104;-73
2022/10/04 06:51:24;;;;;;;14.15;7.38;;;14.80;94.60;;;;;;5014787;28;20069;-73
2022/10/04 06:54:31;;;;;;;11.60;6.93;;;14.80;94.50;;;;;;5014946;28;20034;-74
2022/10/04 06:57:18;;;;;;;14.88;6.78;;;14.80;94.50;;;;;;5014732;28;20021;-73
2022/10/04 07:00:08;;;;;;;12.95;7.30;;;14.80;94.50;;;;;;5014711;28;20505;-74
2022/10/04 07:02:57;;;;;;;13.52;7.28;;;14.80;94.50;;;;;;5013995;28;20037;-74
2022/10/04 07:05:43;;;;;;;11.07;7.10;;;14.80;94.50;;;;;;5014581;28;20030;-74
2022/10/04 07:08:37;;;;;;;11.70;7.35;;;14.80;94.40;;;;;;5014976;28;20057;-75
2022/10/04 07:11:29;;;;;;;13.98;7.80;;;14.80;94.40;;;;;;5014520;28;20030;-73
2022/10/04 07:14:13;;;;;;;10.75;6.07;;;14.70;94.50;;;;;;5014658;28;20386;-74
2022/10/04 07:16:44;;;;;;;13.73;6.88;;;14.80;94.50;;;;;;5014910;28;20029;-74
2022/10/04 07:19:19;;;;;;;15.77;7.57;;;14.80;94.50;;;;;;5022223;28;20509;-71
2022/10/04 07:21:44;;;;;;;12.10;7.43;;;14.80;94.60;;;;;;5022173;28;20022;-74
2022/10/04 07:24:18;;;;;;;12.25;6.97;;;14.80;94.70;;;;;;5014449;28;20026;-75
2022/10/04 07:26:47;;;;;;;13.93;7.55;;;14.80;94.80;;;;;;5014348;28;20060;-73
2022/10/04 07:29:27;;;;;;;15.70;7.47;;;14.70;94.80;;;;;;5014157;28;20029;-74
2022/10/04 07:32:08;;;;;;;13.32;8.25;;;14.80;95.10;;;;;;5014084;28;20398;-74
2022/10/04 07:34:57;;;;;;;17.25;8.13;;;14.70;95.10;;;;;;5013808;28;20040;-74
2022/10/04 07:37:26;;;;;;;13.18;7.82;;;14.60;95.40;;;;;;5014002;28;20492;-73
2022/10/04 07:40:05;;;;;;;11.60;7.53;;;14.60;95.60;;;;;;5014184;28;20022;-74
2022/10/04 07:43:16;;;;;;;11.52;7.47;;;14.60;95.60;;;;;;5013902;28;20030;-73
2022/10/04 07:45:42;;;;;;;13.52;7.00;;;14.60;95.60;;;;;;5017185;28;20560;-74
2022/10/04 07:48:22;;;;;;;14.07;6.53;;;14.70;95.50;;;;;;5014102;28;20033;-74
2022/10/04 07:50:53;;;;;;;15.35;6.88;;;14.70;95.70;;;;;;5013994;28;20032;-74
2022/10/04 07:53:40;;;;;;;11.48;7.28;;;14.70;95.70;;;;;;5013932;28;20041;-73
2022/10/04 07:56:26;;;;;;;14.00;6.97;;;14.90;95.70;;;;;;5013615;28;20026;-72
2022/10/04 07:59:30;;;;;;;8.25;5.35;;;15.00;95.90;;;;;;5013843;28;20092;-73
2022/10/04 08:02:15;;;;;;;14.38;5.38;;;15.10;95.70;;;;;;5014035;28;20104;-74
2022/10/04 08:05:00;;;;;;;10.80;5.90;;;15.20;95.30;;;;;;5013553;28;20029;-74
2022/10/04 08:07:34;;;;;;;13.52;6.13;;;15.30;95.30;;;;;;5013437;28;20469;-73
2022/10/04 08:10:34;;;;;;;9.70;5.63;;;15.40;95.10;;;;;;5013867;28;20033;-74
2022/10/04 08:13:22;;;;;;;9.18;5.00;;;15.60;94.90;;;;;;5013404;28;20113;-74
2022/10/04 08:15:51;;;;;;;8.25;4.75;;;15.80;94.70;;;;;;5017195;28;20057;-70
2022/10/04 08:18:25;;;;;;;11.40;4.70;;;15.80;94.40;;;;;;5026053;28;20435;-75
2022/10/04 08:21:17;;;;;;;7.97;4.20;;;15.90;94.50;;;;;;5015060;28;20018;-73
2022/10/04 08:24:03;;;;;;;9.80;4.37;;;16.00;94.40;;;;;;5013839;28;20049;-73
2022/10/04 08:26:43;;;;;;;10.60;4.25;;;16.10;94.10;;;;;;5021834;28;20292;-73
2022/10/04 08:29:46;;;;;;;13.57;4.38;;;16.20;93.70;;;;;;5013396;28;20481;-73
2022/10/04 08:32:40;;;;;;;8.65;4.75;;;16.30;93.50;;;;;;5013708;28;20053;-73
2022/10/04 08:35:36;;;;;;;8.95;4.32;;;16.40;93.20;;;;;;5016038;28;20382;-73
2022/10/04 08:38:33;;;;;;;6.63;4.03;;;16.40;92.80;;;;;;5013387;28;20385;-74
2022/10/04 08:41:35;;;;;;;9.80;4.85;;;16.40;92.60;;;;;;5013071;28;20018;-74
2022/10/04 08:44:38;;;;;;;10.73;4.30;;;16.50;92.70;;;;;;5013534;28;20022;-74
2022/10/04 08:47:30;;;;;;;15.85;4.70;;;16.50;92.70;;;;;;5013221;28;20089;-74
2022/10/04 08:50:37;;;;;;;10.23;4.55;;;16.60;92.60;;;;;;5013341;28;20057;-73
2022/10/04 08:53:15;;;;;;;11.88;5.28;;;16.70;92.10;;;;;;5013123;28;20034;-74
2022/10/04 08:56:13;;;;;;;11.25;4.80;;;16.70;91.80;;;;;;5013303;28;20030;-74
2022/10/04 08:59:16;;;;;;;7.28;4.30;;;16.70;91.70;;;;;;5013206;28;20466;-74
2022/10/04 09:02:15;;;;;;;9.93;4.70;;;16.70;91.80;;;;;;5013400;28;20034;-75
2022/10/04 09:05:15;;;;;;;12.60;5.03;;;16.80;91.70;;;;;;5013211;28;20022;-75
2022/10/04 09:08:13;;;;;;;10.55;4.38;;;16.80;92.00;;;;;;5013117;28;20493;-74
2022/10/04 09:11:04;;;;;;;11.57;5.72;;;16.80;91.50;;;;;;5013321;28;20026;-71
2022/10/04 09:13:45;;;;;;;10.60;5.07;;;16.90;91.30;;;;;;5028952;28;20110;-74
2022/10/04 09:16:27;;;;;;;12.93;4.78;;;16.90;91.40;;;;;;5013412;28;20037;-74
2022/10/04 09:19:11;;;;;;;9.18;4.38;;;17.00;91.50;;;;;;5013226;28;20032;-74
2022/10/04 09:21:40;;;;;;;8.60;4.38;;;17.20;91.00;;;;;;5013036;28;20032;-74
2022/10/04 09:24:43;;;;;;;8.68;4.22;;;17.30;91.00;;;;;;5013187;28;20080;-75
2022/10/04 09:27:40;;;;;;;10.55;5.32;;;17.40;90.70;;;;;;5016378;28;20053;-75
2022/10/04 09:30:23;;;;;;;8.93;4.43;;;17.50;90.90;;;;;;5016565;28;20497;-75
2022/10/04 09:33:05;;;;;;;8.07;4.68;;;17.60;90.40;;;;;;5016725;28;20030;-74
2022/10/04 09:35:58;;;;;;;7.05;4.38;;;17.60;90.10;;;;;;5016429;28;20026;-74
2022/10/04 09:38:42;;;;;;;;;;;17.60;89.90;;;;;;5016940;28;20025;-74
2022/10/04 09:41:10;;;;;;;7.82;4.97;;;17.70;89.90;;;;;;5016471;28;19959;-74
2022/10/04 09:44:02;;;;;;;10.65;4.88;;;17.70;89.80;;;;;;5016413;28;20021;-74
2022/10/04 09:46:54;;;;;;;12.57;5.28;;;17.70;89.50;;;;;;5016372;28;20040;-75
2022/10/04 09:49:39;;;;;;;10.27;4.35;;;17.80;89.20;;;;;;5016465;28;20050;-75
2022/10/04 09:52:23;;;;;;;11.65;4.95;;;17.80;89.50;;;;;;5016212;28;20104;-75
2022/10/04 09:55:10;;;;;;;11.55;4.65;;;17.80;90.00;;;;;;5016140;28;20029;-74
2022/10/04 09:57:38;;;;;;;10.40;3.92;;;17.90;89.20;;;;;;5016025;28;20168;-74
2022/10/04 10:00:22;;;;;;;10.82;4.45;;;18.00;89.10;;;;;;5016040;28;20600;-74
2022/10/04 10:03:12;;;;;;;6.45;3.65;;;18.10;89.50;;;;;;5015869;28;20064;-75
2022/10/04 10:06:16;;;;;;;11.88;4.35;;;18.20;89.00;;;;;;5016524;28;20181;-74
2022/10/04 10:09:08;;;;;;;12.02;4.40;;;18.40;88.30;;;;;;5031949;28;20049;-75
2022/10/04 10:15:04;;;;;;;7.60;3.27;;;18.60;87.00;;;;;;5015938;28;20115;-75
2022/10/04 10:17:48;;;;;;;6.25;3.38;;;18.70;86.80;;;;;;5015824;28;20261;-75
2022/10/04 10:20:35;;;;;;;9.85;3.05;;;18.80;86.00;;;;;;5015797;28;20026;-75
2022/10/04 10:23:29;;;;;;;6.90;3.15;;;18.80;85.60;;;;;;5015568;28;20417;-75
2022/10/04 10:26:11;;;;;;;7.82;2.97;;;18.90;84.80;;;;;;5015706;28;20037;-75
2022/10/04 10:29:04;;;;;;;6.93;2.95;;;18.90;86.00;;;;;;5015482;28;20032;-75
2022/10/04 10:31:49;;;;;;;;;;;19.10;86.60;;;;;;5015731;28;20065;-75
2022/10/04 10:34:27;;;;;;;10.60;3.25;;;19.20;84.10;;;;;;5015678;28;19913;-75
2022/10/04 10:37:26;;;;;;;10.23;3.55;;;19.20;83.20;;;;;;5014992;28;20029;-75
2022/10/04 10:40:36;;;;;;;7.90;3.55;;;19.20;83.40;;;;;;5015522;28;20116;-75
2022/10/04 10:43:35;;;;;;;10.65;2.95;;;19.30;82.20;;;;;;5015314;28;20017;-73
2022/10/04 10:46:22;;;;;;;7.82;3.33;;;19.20;82.60;;;;;;5014944;28;20089;-75
2022/10/04 10:49:17;;;;;;;10.15;3.35;;;19.20;81.90;;;;;;5015353;28;20037;-75
2022/10/04 10:52:02;;;;;;;5.35;3.20;;;19.10;82.20;;;;;;5015220;28;20050;-74
2022/10/04 10:54:48;;;;;;;9.07;4.35;;;19.10;81.90;;;;;;5015192;28;20034;-75
2022/10/04 10:57:58;;;;;;;8.75;3.47;;;19.00;82.00;;;;;;5015031;28;20026;-76
2022/10/04 11:00:28;;;;;;;11.02;2.92;;;19.10;83.10;;;;;;5015438;28;20084;-75
2022/10/04 11:03:20;;;;;;;9.20;3.13;;;19.40;84.40;;;;;;5028245;28;20018;-71
2022/10/04 11:06:10;;;;;;;10.40;3.38;;;19.60;84.00;;;;;;5020164;28;20037;-75
2022/10/04 11:09:01;;;;;;;10.65;3.90;;;19.70;82.50;;;;;;5014944;28;20097;-74
2022/10/04 11:12:14;;;;;;;9.23;3.40;;;19.80;81.70;;;;;;5014544;28;20022;-75
2022/10/04 11:14:54;;;;;;;9.77;3.47;;;19.90;81.50;;;;;;5021020;28;20117;-76
2022/10/04 11:17:58;;;;;;;9.68;3.30;;;20.00;80.60;;;;;;5014798;28;20022;-75
2022/10/04 11:20:58;;;;;;;7.32;3.33;;;20.00;80.10;;;;;;5022755;28;20030;-74
2022/10/04 11:23:42;;;;;;;9.27;3.28;;;20.10;82.00;;;;;;5014278;28;20030;-76
2022/10/04 11:26:29;;;;;;;8.55;3.88;;;20.30;81.30;;;;;;5013740;28;20505;-75
2022/10/04 11:29:28;;;;;;;7.38;3.20;;;20.30;79.50;;;;;;5014403;28;20481;-75
2022/10/04 11:32:12;;;;;;;9.07;3.67;;;20.40;80.00;;;;;;5014208;28;20030;-75
2022/10/04 11:35:10;;;;;;;9.60;3.22;;;20.50;80.50;;;;;;5014180;28;20094;-75
2022/10/04 11:37:56;;;;;;;11.88;3.60;;;20.60;80.00;;;;;;5014518;28;20080;-75
2022/10/04 11:40:29;;;;;;;9.93;3.80;;;20.70;81.20;;;;;;5013999;28;20026;-75
2022/10/04 11:43:10;;;;;;;7.90;2.95;;;20.90;78.60;;;;;;5014246;28;20034;-75
2022/10/04 11:46:04;;;;;;;5.15;2.30;;;20.90;78.00;;;;;;5014055;28;20026;-75
2022/10/04 11:49:03;;;;;;;7.32;3.17;;;21.00;79.80;;;;;;5013641;28;20038;-74
2022/10/04 11:51:55;;;;;;;6.55;3.03;;;21.10;78.80;;;;;;5013503;28;20092;-74
2022/10/04 11:54:38;;;;;;;7.82;2.95;;;21.00;77.40;;;;;;5014424;28;20437;-75
2022/10/04 11:57:14;;;;;;;8.93;2.70;;;21.10;76.50;;;;;;5019569;28;20080;-74
2022/10/04 12:00:03;;;;;;;7.13;2.20;;;21.00;75.60;;;;;;5015587;28;20026;-74
2022/10/04 12:02:49;;;;;;;6.72;2.13;;;21.10;75.60;;;;;;5013845;28;20026;-75
2022/10/04 12:05:43;;;;;;;7.05;2.15;;;21.10;75.40;;;;;;5013613;28;20374;-75
2022/10/04 12:08:25;;;;;;;5.90;2.10;;;21.10;75.30;;;;;;5013564;28;20109;-75
2022/10/04 12:12:35;;;;;;;5.90;2.30;;;21.00;76.30;;;;;;5013663;28;20029;-74
2022/10/04 12:14:28;;;;;;;7.60;2.15;;;21.00;75.90;;;;;;5017102;28;20033;-74
2022/10/04 12:17:27;;;;;;;7.28;2.00;;;21.00;75.70;;;;;;5013439;28;20112;-74
2022/10/04 12:20:09;;;;;;;7.03;2.30;;;21.00;74.20;;;;;;5012701;28;20026;-74
2022/10/04 12:22:47;;;;;;;5.03;2.25;;;21.00;74.20;;;;;;5012328;28;20088;-74
2022/10/04 12:25:52;;;;;;;5.63;2.08;;;21.00;74.50;;;;;;5012636;28;20026;-74
2022/10/04 12:28:29;;;;;;;9.70;1.80;;;21.00;73.40;;;;;;5012962;28;20038;-75
2022/10/04 12:31:01;;;;;;;8.00;1.92;;;20.90;73.90;;;;;;5013543;28;20390;-74
2022/10/04 12:33:43;;;;;;;4.70;1.42;;;20.80;74.20;;;;;;5013175;28;20030;-74
2022/10/04 12:36:27;;;;;;;9.77;1.90;;;20.80;73.80;;;;;;5013128;28;20036;-75
2022/10/04 12:39:51;;;;;;;5.35;2.42;;;20.80;75.50;;;;;;5013218;28;20046;-74
2022/10/04 12:42:48;;;;;;;6.65;1.90;;;20.90;74.30;;;;;;4943469;28;20032;-74
2022/10/04 12:45:39;;;;;;;6.28;1.98;;;20.90;74.20;;;;;;5013445;28;20029;-74
2022/10/04 12:48:33;;;;;;;6.70;2.28;;;20.90;73.70;;;;;;5013033;28;20026;-75
2022/10/04 12:51:04;;;;;;;6.45;1.80;;;20.90;74.00;;;;;;5013018;28;20485;-75
2022/10/04 12:53:36;;;;;;;5.47;1.65;;;21.00;73.80;;;;;;5014129;28;20036;-73
2022/10/04 12:56:17;;;;;;;4.13;1.70;;;21.10;72.80;;;;;;5014497;28;20028;-75
2022/10/04 12:58:48;;;;;;;5.72;1.70;;;21.00;71.50;;;;;;5013269;28;20454;-75
2022/10/04 13:01:42;;;;;;;7.65;1.95;;;21.00;72.70;;;;;;5016348;28;20029;-76
2022/10/04 13:04:31;;;;;;;6.95;2.20;;;20.90;72.70;;;;;;5017032;28;20026;-75
2022/10/04 13:07:28;;;;;;;7.05;2.28;;;20.90;72.50;;;;;;5016824;28;20026;-76
2022/10/04 13:10:15;;;;;;;9.73;2.10;;;21.00;71.70;;;;;;5016810;28;20049;-76
2022/10/04 13:13:31;;;;;;;4.93;1.40;;;21.20;73.20;;;;;;5016798;28;20038;-75
2022/10/04 13:16:20;;;;;;;3.88;1.30;;;21.40;73.00;;;;;;5016807;28;20030;-76
2022/10/04 13:19:09;;;;;;;7.35;1.70;;;21.60;72.90;;;;;;5016794;28;20117;-74
2022/10/04 13:21:49;;;;;;;4.43;1.45;;;21.80;70.90;;;;;;5016544;28;20104;-75
2022/10/04 13:24:53;;;;;;;5.05;1.90;;;22.00;70.30;;;;;;5016138;28;20057;-74
2022/10/04 13:27:29;;;;;;;8.50;1.90;;;22.00;69.40;;;;;;5016421;28;20058;-75
2022/10/04 13:29:55;;;;;;;4.30;1.67;;;22.10;69.60;;;;;;5016881;28;20057;-76
2022/10/04 13:32:26;;;;;;;6.18;2.00;;;22.30;69.70;;;;;;5016190;28;20195;-75
2022/10/04 13:35:17;;;;;;;5.15;1.63;;;22.40;68.90;;;;;;5016403;28;20022;-76
2022/10/04 13:38:17;;;;;;;4.47;1.52;;;22.40;67.10;;;;;;5018251;28;20030;-75
2022/10/04 13:40:57;;;;;;;6.95;1.90;;;22.40;67.00;;;;;;5016273;28;20054;-75
2022/10/04 13:43:55;;;;;;;5.43;1.52;;;22.40;67.20;;;;;;5016461;28;20046;-75
2022/10/04 13:46:24;;;;;;;8.25;1.55;;;22.40;66.60;;;;;;5019553;28;20037;-75
2022/10/04 13:49:19;;;;;;;3.35;1.30;;;22.30;65.00;;;;;;5016523;28;20477;-74
2022/10/04 13:51:48;;;;;;;5.07;1.30;;;22.10;65.40;;;;;;5018547;28;20045;-75
2022/10/04 13:57:41;;;;;;;5.07;1.17;;;22.00;64.50;;;;;;5015924;28;20097;-75
2022/10/04 14:00:30;;;;;;;4.95;1.60;;;21.90;63.70;;;;;;5015837;28;20393;-76
2022/10/04 14:03:05;;;;;;;7.85;1.92;;;21.70;64.60;;;;;;5016299;28;20032;-76
2022/10/04 14:05:52;;;;;;;6.55;1.35;;;21.80;65.50;;;;;;5016009;28;20303;-76